Time;durP1;ratioP1;P1;durP2;ratioP2;P2;SDS_P1;SDS_P2;PMS_P1;PMS_P2;Temp;Humidity;BMP_temperature;BMP_pressure;BME280_temperature;BME280_humidity;BME280_pressure;Samples;Min_cycle;Max_cycle;Signal;HPM_P1;HPM_P2
2023/01/11 00:01:16;;;;;;;0.60;0.40;;;8.30;99.90;;;;;;5095151;28;20213;-45
2023/01/11 00:03:46;;;;;;;0.50;0.40;;;8.30;99.90;;;;;;5100598;28;20215;-47
2023/01/11 00:06:14;;;;;;;0.90;0.70;;;8.30;99.90;;;;;;5080716;28;20492;-47
2023/01/11 00:08:43;;;;;;;0.60;0.40;;;8.40;99.90;;;;;;5078290;28;20462;-47
2023/01/11 00:11:15;;;;;;;0.50;0.30;;;8.30;99.90;;;;;;5083434;28;20219;-46
2023/01/11 00:13:44;;;;;;;0.60;0.40;;;8.40;99.90;;;;;;5079364;28;20192;-45
2023/01/11 00:16:13;;;;;;;0.73;0.40;;;8.40;99.90;;;;;;5081794;28;20212;-47
2023/01/11 00:18:42;;;;;;;0.67;0.50;;;8.30;99.90;;;;;;5073655;28;20483;-46
2023/01/11 00:21:12;;;;;;;0.73;0.40;;;8.40;99.90;;;;;;5086889;28;20472;-45
2023/01/11 00:23:40;;;;;;;0.57;0.30;;;8.40;99.90;;;;;;5081872;28;20199;-46
2023/01/11 00:26:12;;;;;;;0.87;0.40;;;8.30;99.90;;;;;;5079035;28;20559;-44
2023/01/11 00:28:41;;;;;;;0.63;0.40;;;8.40;99.90;;;;;;5093918;28;20486;-46
2023/01/11 00:31:10;;;;;;;0.50;0.40;;;8.40;99.90;;;;;;5093398;28;20247;-46
2023/01/11 00:33:39;;;;;;;1.10;0.40;;;8.40;99.90;;;;;;5096906;28;20203;-46
2023/01/11 00:36:09;;;;;;;0.60;0.38;;;8.40;99.90;;;;;;5091369;28;20566;-46
2023/01/11 00:38:50;;;;;;;0.68;0.50;;;8.40;99.90;;;;;;5091584;28;20241;-47
2023/01/11 00:49:46;;;;;;;0.93;0.63;;;8.40;99.90;;;;;;5082445;28;20216;-46
2023/01/11 00:52:14;;;;;;;0.90;0.65;;;8.40;99.90;;;;;;5083784;28;20445;-46
2023/01/11 00:54:44;;;;;;;1.48;0.60;;;8.40;99.90;;;;;;5074619;28;20203;-46
2023/01/11 00:57:13;;;;;;;1.53;0.47;;;8.40;99.90;;;;;;5076671;28;20224;-46
2023/01/11 00:59:41;;;;;;;0.90;0.67;;;8.30;99.90;;;;;;5075877;28;20522;-46
2023/01/11 01:02:11;;;;;;;1.13;0.50;;;8.40;99.90;;;;;;5078204;28;20451;-47
2023/01/11 01:04:40;;;;;;;0.57;0.40;;;8.40;99.90;;;;;;5079879;28;20241;-46
2023/01/11 01:07:10;;;;;;;0.60;0.40;;;8.40;99.90;;;;;;5086506;28;20426;-47
2023/01/11 01:09:38;;;;;;;0.60;0.40;;;8.40;99.90;;;;;;5087878;28;20981;-45
2023/01/11 01:12:09;;;;;;;0.50;0.30;;;8.40;99.90;;;;;;5085128;28;21013;-46
2023/01/11 01:14:36;;;;;;;0.80;0.53;;;8.40;99.90;;;;;;5084599;28;20245;-46
2023/01/11 01:17:07;;;;;;;0.50;0.45;;;8.40;99.90;;;;;;5084017;28;20453;-46
2023/01/11 01:19:37;;;;;;;0.60;0.50;;;8.30;99.90;;;;;;5086221;28;20567;-46
2023/01/11 01:22:06;;;;;;;0.80;0.50;;;8.40;99.90;;;;;;5082200;28;20458;-46
2023/01/11 01:24:34;;;;;;;0.80;0.40;;;8.40;99.90;;;;;;5080059;28;20461;-46
2023/01/11 01:27:03;;;;;;;0.70;0.30;;;8.40;99.90;;;;;;5087352;28;20227;-47
2023/01/11 01:29:33;;;;;;;0.50;0.30;;;8.40;99.90;;;;;;5083427;28;20311;-46
2023/01/11 01:32:01;;;;;;;0.60;0.43;;;8.40;99.90;;;;;;5081778;28;20227;-45
2023/01/11 01:34:30;;;;;;;0.70;0.30;;;8.40;99.90;;;;;;5080820;28;20449;-45
2023/01/11 01:36:58;;;;;;;0.45;0.40;;;8.40;99.90;;;;;;5084618;28;20208;-47
2023/01/11 01:39:27;;;;;;;0.93;0.50;;;8.40;99.90;;;;;;5077509;28;20266;-46
2023/01/11 01:41:56;;;;;;;0.50;0.40;;;8.40;99.90;;;;;;5080279;28;20226;-46
2023/01/11 01:44:55;;;;;;;0.40;0.30;;;8.40;99.90;;;;;;5083463;28;20203;-46
2023/01/11 01:47:32;;;;;;;0.40;0.30;;;8.40;99.90;;;;;;5077101;28;20248;-46
2023/01/11 01:50:04;;;;;;;0.65;0.30;;;8.40;99.90;;;;;;5089844;28;20481;-47
2023/01/11 01:52:34;;;;;;;0.55;0.40;;;8.40;99.90;;;;;;5083483;28;20692;-47
2023/01/11 01:55:07;;;;;;;0.50;0.30;;;8.40;99.90;;;;;;5081725;28;20220;-46
2023/01/11 01:57:39;;;;;;;0.50;0.37;;;8.40;99.90;;;;;;5077753;28;20782;-46
2023/01/11 02:00:11;;;;;;;0.70;0.30;;;8.40;99.90;;;;;;5079715;28;20461;-46
2023/01/11 02:02:42;;;;;;;0.60;0.40;;;8.40;99.90;;;;;;5098918;28;20208;-47
2023/01/11 02:05:12;;;;;;;0.47;0.30;;;8.40;99.90;;;;;;5085085;28;20222;-46
2023/01/11 02:07:43;;;;;;;0.60;0.40;;;8.40;99.90;;;;;;5077242;28;20496;-46
2023/01/11 02:10:15;;;;;;;0.50;0.30;;;8.40;99.90;;;;;;5077225;28;20313;-46
2023/01/11 02:12:49;;;;;;;0.50;0.40;;;8.40;99.90;;;;;;5096064;28;20477;-47
2023/01/11 02:15:21;;;;;;;0.70;0.50;;;8.40;99.90;;;;;;5079045;28;20723;-47
2023/01/11 02:17:50;;;;;;;0.50;0.30;;;8.40;99.90;;;;;;5083576;28;20282;-45
2023/01/11 02:20:32;;;;;;;0.80;0.30;;;8.40;99.90;;;;;;5085488;28;20216;-45
2023/01/11 02:23:35;;;;;;;0.60;0.40;;;8.40;99.90;;;;;;5084580;28;20445;-46
2023/01/11 02:26:28;;;;;;;0.50;0.40;;;8.40;99.90;;;;;;5084124;28;20479;-46
2023/01/11 02:29:05;;;;;;;0.70;0.45;;;8.40;99.90;;;;;;5097236;28;20352;-46
2023/01/11 02:31:39;;;;;;;0.60;0.35;;;8.40;99.90;;;;;;5079742;28;20216;-47
2023/01/11 02:34:21;;;;;;;0.50;0.30;;;8.40;99.90;;;;;;5081728;28;20220;-46
2023/01/11 02:37:03;;;;;;;0.50;0.40;;;8.40;99.90;;;;;;5083089;28;20742;-48
2023/01/11 02:39:39;;;;;;;0.40;0.30;;;8.40;99.90;;;;;;5098090;28;20226;-45
2023/01/11 02:45:08;;;;;;;1.07;0.30;;;8.40;99.90;;;;;;5085175;28;20221;-45
2023/01/11 02:47:42;;;;;;;0.50;0.40;;;8.40;99.90;;;;;;5099771;28;20841;-46
2023/01/11 02:50:18;;;;;;;0.60;0.33;;;8.40;99.90;;;;;;5096474;28;20809;-46
2023/01/11 02:52:53;;;;;;;0.60;0.30;;;8.40;99.90;;;;;;5096024;28;20445;-46
2023/01/11 02:55:25;;;;;;;0.90;0.40;;;8.40;99.90;;;;;;5082000;28;20551;-45
2023/01/11 02:57:58;;;;;;;0.50;0.30;;;8.40;99.90;;;;;;5076406;28;20438;-47
2023/01/11 03:00:29;;;;;;;0.50;0.30;;;8.40;99.90;;;;;;5080236;28;20537;-46
2023/01/11 03:03:09;;;;;;;0.70;0.30;;;8.40;99.90;;;;;;5080860;28;20199;-46
2023/01/11 03:05:43;;;;;;;0.60;0.40;;;8.40;99.90;;;;;;5080345;28;20449;-46
2023/01/11 03:08:36;;;;;;;0.50;0.30;;;8.40;99.90;;;;;;5083218;28;21033;-47
2023/01/11 03:11:08;;;;;;;0.50;0.30;;;8.40;99.90;;;;;;5084213;28;20226;-48
2023/01/11 03:14:08;;;;;;;0.77;0.30;;;8.40;99.90;;;;;;5085281;28;20809;-46
2023/01/11 03:16:45;;;;;;;1.10;0.30;;;8.40;99.90;;;;;;5082749;28;20518;-47
2023/01/11 03:19:24;;;;;;;0.50;0.30;;;8.40;99.90;;;;;;5083974;28;20219;-46
2023/01/11 03:22:02;;;;;;;0.50;0.40;;;8.40;99.90;;;;;;5097171;28;20477;-46
2023/01/11 03:24:39;;;;;;;0.60;0.30;;;8.40;99.90;;;;;;5078504;28;20941;-46
2023/01/11 03:27:19;;;;;;;1.23;0.60;;;8.40;99.90;;;;;;5095850;28;20299;-46
2023/01/11 03:29:51;;;;;;;1.13;0.50;;;8.40;99.90;;;;;;5091997;28;20459;-46
2023/01/11 03:32:30;;;;;;;0.40;0.30;;;8.40;99.90;;;;;;5080115;28;20442;-45
2023/01/11 03:35:10;;;;;;;0.50;0.40;;;8.40;99.90;;;;;;5081309;28;20466;-47
2023/01/11 03:37:44;;;;;;;0.83;0.40;;;8.40;99.90;;;;;;5077602;28;20554;-46
2023/01/11 03:40:17;;;;;;;0.45;0.30;;;8.40;99.90;;;;;;5077136;28;20459;-47
2023/01/11 03:43:11;;;;;;;0.40;0.30;;;8.40;99.90;;;;;;5078050;28;20701;-45
2023/01/11 03:45:46;;;;;;;0.60;0.50;;;8.40;99.90;;;;;;5080966;28;20477;-45
2023/01/11 03:48:19;;;;;;;0.60;0.30;;;8.40;99.90;;;;;;5083223;28;20483;-46
2023/01/11 03:50:50;;;;;;;0.60;0.30;;;8.40;99.90;;;;;;5095066;28;20211;-46
2023/01/11 03:53:24;;;;;;;0.50;0.30;;;8.40;99.90;;;;;;5079791;28;20195;-47
2023/01/11 03:55:56;;;;;;;0.53;0.30;;;8.40;99.90;;;;;;5082468;28;20214;-46
2023/01/11 03:58:27;;;;;;;0.50;0.30;;;8.40;99.90;;;;;;5080262;28;20877;-47
2023/01/11 04:00:56;;;;;;;0.40;0.30;;;8.40;99.90;;;;;;5072299;28;20246;-47
2023/01/11 04:03:30;;;;;;;0.40;0.30;;;8.40;99.90;;;;;;5077334;28;20512;-46
2023/01/11 04:06:01;;;;;;;0.50;0.30;;;8.40;99.90;;;;;;5082222;28;20294;-47
2023/01/11 04:08:31;;;;;;;0.40;0.30;;;8.40;99.90;;;;;;5079060;28;20647;-46
2023/01/11 04:10:59;;;;;;;0.40;0.30;;;8.40;99.90;;;;;;5081262;28;20912;-46
2023/01/11 04:13:28;;;;;;;0.60;0.40;;;8.40;99.90;;;;;;5080780;28;20461;-44
2023/01/11 04:15:56;;;;;;;0.50;0.30;;;8.40;99.90;;;;;;5077530;28;20706;-46
2023/01/11 04:18:26;;;;;;;0.60;0.30;;;8.40;99.90;;;;;;5082453;28;21070;-45
2023/01/11 04:20:55;;;;;;;0.50;0.30;;;8.40;99.90;;;;;;5075785;28;20216;-46
2023/01/11 04:23:23;;;;;;;0.47;0.27;;;8.40;99.90;;;;;;5078555;28;20215;-47
2023/01/11 04:25:52;;;;;;;0.40;0.30;;;8.50;99.90;;;;;;5077157;28;20441;-46
2023/01/11 04:28:21;;;;;;;0.50;0.30;;;8.40;99.90;;;;;;5082503;28;20215;-45
2023/01/11 04:30:49;;;;;;;0.73;0.40;;;8.40;99.90;;;;;;5082687;28;20445;-47
2023/01/11 04:33:18;;;;;;;0.50;0.30;;;8.50;99.90;;;;;;5079293;28;20193;-46
2023/01/11 04:35:49;;;;;;;0.50;0.40;;;8.50;99.90;;;;;;5081336;28;20771;-46
2023/01/11 04:38:18;;;;;;;0.45;0.30;;;8.50;99.90;;;;;;5086181;28;20798;-46
2023/01/11 04:40:48;;;;;;;0.50;0.30;;;8.50;99.90;;;;;;5085139;28;20203;-45
2023/01/11 04:43:15;;;;;;;0.53;0.40;;;8.50;99.90;;;;;;5088460;28;20665;-45
2023/01/11 04:45:43;;;;;;;0.60;0.33;;;8.40;99.90;;;;;;5089473;28;20487;-46
2023/01/11 04:48:12;;;;;;;0.40;0.30;;;8.40;99.90;;;;;;5066392;28;21026;-46
2023/01/11 04:50:41;;;;;;;0.40;0.20;;;8.50;99.90;;;;;;5081680;28;20211;-45
2023/01/11 04:53:11;;;;;;;0.50;0.40;;;8.50;99.90;;;;;;5078502;28;20964;-47
2023/01/11 04:55:39;;;;;;;0.50;0.30;;;8.50;99.90;;;;;;5079993;28;20228;-46
2023/01/11 04:58:08;;;;;;;0.57;0.30;;;8.50;99.90;;;;;;5083583;28;20468;-48
2023/01/11 05:00:36;;;;;;;0.50;0.30;;;8.50;99.90;;;;;;5085083;28;20831;-46
2023/01/11 05:03:04;;;;;;;1.00;0.40;;;8.50;99.90;;;;;;5078147;28;20446;-44
2023/01/11 05:05:33;;;;;;;0.90;0.30;;;8.50;99.90;;;;;;5086210;28;21030;-46
2023/01/11 05:08:01;;;;;;;0.60;0.30;;;8.50;99.90;;;;;;5082297;28;20914;-46
2023/01/11 05:10:32;;;;;;;0.83;0.40;;;8.50;99.90;;;;;;5084487;28;20469;-47
2023/01/11 05:13:00;;;;;;;0.50;0.40;;;8.50;99.90;;;;;;5085081;28;20736;-45
2023/01/11 05:15:29;;;;;;;0.60;0.30;;;8.50;99.90;;;;;;5079200;28;20506;-46
2023/01/11 05:17:57;;;;;;;0.50;0.30;;;8.50;99.90;;;;;;5082826;28;20435;-46
2023/01/11 05:20:26;;;;;;;0.70;0.50;;;8.50;99.90;;;;;;5082313;28;20877;-45
2023/01/11 05:22:54;;;;;;;0.50;0.40;;;8.50;99.90;;;;;;5081869;28;20454;-47
2023/01/11 05:25:23;;;;;;;0.50;0.30;;;8.50;99.90;;;;;;5083803;28;20193;-47
2023/01/11 05:27:52;;;;;;;0.70;0.50;;;8.50;99.90;;;;;;5086539;28;20207;-46
2023/01/11 05:30:21;;;;;;;0.40;0.30;;;8.50;99.90;;;;;;5097310;28;21004;-46
2023/01/11 05:32:50;;;;;;;0.47;0.30;;;8.50;99.90;;;;;;5081267;28;21029;-46
2023/01/11 05:35:19;;;;;;;0.87;0.50;;;8.50;99.90;;;;;;5083908;28;20428;-44
2023/01/11 05:37:47;;;;;;;0.40;0.30;;;8.50;99.90;;;;;;5084491;28;20948;-46
2023/01/11 05:40:16;;;;;;;0.50;0.30;;;8.50;99.90;;;;;;5073040;28;20457;-46
2023/01/11 05:42:46;;;;;;;0.50;0.30;;;8.50;99.90;;;;;;5084176;28;20449;-46
2023/01/11 05:45:27;;;;;;;0.53;0.30;;;8.50;99.90;;;;;;5084423;28;20217;-43
2023/01/11 05:47:56;;;;;;;0.70;0.45;;;8.50;99.90;;;;;;5099039;28;20493;-46
2023/01/11 05:50:25;;;;;;;0.40;0.30;;;8.50;99.90;;;;;;5084451;28;20642;-46
2023/01/11 05:52:53;;;;;;;0.55;0.30;;;8.50;99.90;;;;;;5083236;28;20691;-45
2023/01/11 05:55:22;;;;;;;0.40;0.20;;;8.50;99.90;;;;;;5082883;28;20248;-46
2023/01/11 05:57:50;;;;;;;0.50;0.30;;;8.50;99.90;;;;;;5085973;28;21003;-46
2023/01/11 06:00:21;;;;;;;0.50;0.35;;;8.50;99.90;;;;;;5080789;28;20533;-46
2023/01/11 06:02:50;;;;;;;0.40;0.30;;;8.50;99.90;;;;;;5081778;28;20719;-47
2023/01/11 06:05:19;;;;;;;0.40;0.30;;;8.50;99.90;;;;;;5084285;28;20430;-46
2023/01/11 06:07:47;;;;;;;0.70;0.37;;;8.50;99.90;;;;;;5087105;28;20461;-46
2023/01/11 06:10:16;;;;;;;0.50;0.30;;;8.50;99.90;;;;;;5080868;28;21333;-46
2023/01/11 06:12:45;;;;;;;0.60;0.30;;;8.50;99.90;;;;;;5084110;28;20449;-46
2023/01/11 06:15:13;;;;;;;0.50;0.27;;;8.50;99.90;;;;;;5081350;28;20446;-45
2023/01/11 06:17:43;;;;;;;0.40;0.30;;;8.50;99.90;;;;;;5069918;28;20446;-46
2023/01/11 06:20:12;;;;;;;0.40;0.30;;;8.50;99.90;;;;;;5081237;28;20220;-45
2023/01/11 06:22:41;;;;;;;0.40;0.30;;;8.50;99.90;;;;;;5079791;28;20441;-46
2023/01/11 06:25:10;;;;;;;0.50;0.30;;;8.50;99.90;;;;;;5084062;28;20963;-45
2023/01/11 06:27:38;;;;;;;0.40;0.30;;;8.50;99.90;;;;;;5084097;28;20449;-46
2023/01/11 06:30:08;;;;;;;0.40;0.30;;;8.50;99.90;;;;;;5076804;28;20486;-46
2023/01/11 06:32:36;;;;;;;0.50;0.30;;;8.50;99.90;;;;;;5081035;28;20819;-45
2023/01/11 06:35:07;;;;;;;0.60;0.30;;;8.50;99.90;;;;;;5076823;28;20995;-44
2023/01/11 06:37:36;;;;;;;0.50;0.30;;;8.50;99.90;;;;;;5081888;28;20514;-46
2023/01/11 06:40:05;;;;;;;0.63;0.30;;;8.50;99.90;;;;;;5077073;28;20228;-45
2023/01/11 06:42:33;;;;;;;0.50;0.30;;;8.50;99.90;;;;;;5082893;28;20524;-46
2023/01/11 06:45:02;;;;;;;0.60;0.40;;;8.50;99.90;;;;;;5082626;28;20201;-46
2023/01/11 06:47:32;;;;;;;0.50;0.30;;;8.50;99.90;;;;;;5082502;28;20937;-47
2023/01/11 06:50:01;;;;;;;0.50;0.30;;;8.50;99.90;;;;;;5081241;28;20465;-45
2023/01/11 06:52:31;;;;;;;0.53;0.30;;;8.50;99.90;;;;;;5079227;28;20196;-46
2023/01/11 06:54:59;;;;;;;0.40;0.30;;;8.50;99.90;;;;;;5076475;28;20502;-44
2023/01/11 06:57:28;;;;;;;0.40;0.30;;;8.50;99.90;;;;;;5076333;28;20445;-46
2023/01/11 06:59:57;;;;;;;0.40;0.30;;;8.50;99.90;;;;;;5081218;28;20476;-45
2023/01/11 07:02:26;;;;;;;0.50;0.30;;;8.50;99.90;;;;;;5082761;28;20426;-47
2023/01/11 07:04:55;;;;;;;0.70;0.40;;;8.50;99.90;;;;;;5084014;28;20844;-47
2023/01/11 07:07:23;;;;;;;0.50;0.30;;;8.50;99.90;;;;;;5086126;28;20520;-45
2023/01/11 07:09:54;;;;;;;0.40;0.20;;;8.50;99.90;;;;;;5080846;28;20475;-44
2023/01/11 07:12:23;;;;;;;0.65;0.32;;;8.50;99.90;;;;;;5085249;28;20428;-45
2023/01/11 07:14:51;;;;;;;0.40;0.30;;;8.50;99.90;;;;;;5084640;28;20207;-46
2023/01/11 07:17:20;;;;;;;0.60;0.30;;;8.50;99.90;;;;;;5078546;28;20470;-45
2023/01/11 07:19:48;;;;;;;0.60;0.30;;;8.50;99.90;;;;;;5083074;28;20507;-45
2023/01/11 07:22:17;;;;;;;0.67;0.30;;;8.50;99.90;;;;;;5083727;28;20484;-46
2023/01/11 07:24:45;;;;;;;0.70;0.30;;;8.50;99.90;;;;;;5082305;28;20504;-47
2023/01/11 07:27:18;;;;;;;0.40;0.20;;;8.50;99.90;;;;;;5083072;28;20431;-45
2023/01/11 07:29:47;;;;;;;0.40;0.30;;;8.50;99.90;;;;;;5085112;28;20481;-46
2023/01/11 07:32:18;;;;;;;0.40;0.30;;;8.50;99.90;;;;;;5082241;28;20541;-47
2023/01/11 07:34:47;;;;;;;0.40;0.20;;;8.50;99.90;;;;;;5084107;28;20864;-45
2023/01/11 07:37:16;;;;;;;0.40;0.30;;;8.50;99.90;;;;;;5082294;28;20451;-45
2023/01/11 07:39:56;;;;;;;0.55;0.30;;;8.50;99.90;;;;;;5084262;28;20457;-44
2023/01/11 07:45:12;;;;;;;0.40;0.30;;;8.50;99.90;;;;;;5075643;28;20466;-46
2023/01/11 07:47:41;;;;;;;0.50;0.30;;;8.50;99.90;;;;;;5085643;28;20437;-44
2023/01/11 07:50:10;;;;;;;0.40;0.30;;;8.50;99.90;;;;;;5083407;28;20530;-44
2023/01/11 07:52:38;;;;;;;0.60;0.40;;;8.60;99.90;;;;;;5083884;28;20487;-44
2023/01/11 07:55:07;;;;;;;0.40;0.20;;;8.60;99.90;;;;;;5080333;28;20449;-46
2023/01/11 07:57:37;;;;;;;0.50;0.30;;;8.50;99.90;;;;;;5085134;28;20956;-45
2023/01/11 08:00:09;;;;;;;0.40;0.20;;;8.60;99.90;;;;;;5084275;28;20548;-46
2023/01/11 08:02:40;;;;;;;0.50;0.30;;;8.60;99.90;;;;;;5094789;28;20245;-45
2023/01/11 08:05:09;;;;;;;0.40;0.30;;;8.60;99.90;;;;;;5087308;28;20441;-46
2023/01/11 08:07:40;;;;;;;0.60;0.30;;;8.60;99.90;;;;;;5087160;28;20435;-46
2023/01/11 08:10:10;;;;;;;0.40;0.30;;;8.60;99.90;;;;;;5099807;28;20871;-45
2023/01/11 08:15:31;;;;;;;0.63;0.40;;;8.60;99.90;;;;;;5084438;28;20278;-45
2023/01/11 08:18:00;;;;;;;0.40;0.30;;;8.60;99.90;;;;;;5086238;28;20443;-44
2023/01/11 08:20:28;;;;;;;0.50;0.37;;;8.60;99.90;;;;;;5079071;28;20481;-45
2023/01/11 08:22:57;;;;;;;0.40;0.30;;;8.60;99.90;;;;;;5086466;28;20452;-45
2023/01/11 08:25:25;;;;;;;0.40;0.30;;;8.60;99.90;;;;;;5089539;28;20467;-46
2023/01/11 08:27:56;;;;;;;0.43;0.30;;;8.60;99.90;;;;;;5076727;28;20471;-45
2023/01/11 08:30:25;;;;;;;0.50;0.30;;;8.60;99.90;;;;;;5081211;28;20326;-45
2023/01/11 08:32:53;;;;;;;0.63;0.30;;;8.60;99.90;;;;;;5080919;28;20492;-44
2023/01/11 08:35:22;;;;;;;0.50;0.30;;;8.60;99.90;;;;;;5083112;28;20192;-46
2023/01/11 08:37:50;;;;;;;0.63;0.30;;;8.60;99.90;;;;;;5078513;28;20518;-45
2023/01/11 08:40:18;;;;;;;0.40;0.28;;;8.60;99.90;;;;;;5080985;28;20534;-46
2023/01/11 08:42:53;;;;;;;0.80;0.30;;;8.60;99.90;;;;;;5084073;28;20200;-45
2023/01/11 08:45:24;;;;;;;0.40;0.30;;;8.50;99.90;;;;;;5101483;28;20939;-46
2023/01/11 08:47:52;;;;;;;0.77;0.40;;;8.60;99.90;;;;;;5074282;28;20818;-46
2023/01/11 08:50:21;;;;;;;0.40;0.30;;;8.60;99.90;;;;;;5079854;28;20473;-45
2023/01/11 08:52:50;;;;;;;0.50;0.20;;;8.60;99.90;;;;;;5083775;28;20430;-46
2023/01/11 08:55:19;;;;;;;0.47;0.33;;;8.60;99.90;;;;;;5086312;28;21261;-46
2023/01/11 08:57:48;;;;;;;0.53;0.40;;;8.60;99.90;;;;;;5078737;28;20435;-46
2023/01/11 09:00:17;;;;;;;0.50;0.33;;;8.60;99.90;;;;;;5080003;28;21517;-47
2023/01/11 09:02:47;;;;;;;0.40;0.30;;;8.60;99.90;;;;;;5084813;28;20510;-46
2023/01/11 09:05:15;;;;;;;1.23;0.50;;;8.60;99.90;;;;;;5079322;28;20956;-46
2023/01/11 09:07:45;;;;;;;0.47;0.30;;;8.60;99.90;;;;;;5083331;28;20565;-45
2023/01/11 09:10:14;;;;;;;0.85;0.40;;;8.60;99.90;;;;;;5076632;28;20223;-44
2023/01/11 09:12:43;;;;;;;0.47;0.30;;;8.60;99.90;;;;;;5087817;28;20396;-45
2023/01/11 09:15:12;;;;;;;0.50;0.30;;;8.60;99.90;;;;;;5081478;28;20482;-45
2023/01/11 09:17:40;;;;;;;0.50;0.30;;;8.60;99.90;;;;;;5080010;28;20475;-45
2023/01/11 09:20:11;;;;;;;0.50;0.43;;;8.60;99.90;;;;;;5074296;28;20473;-44
2023/01/11 09:22:40;;;;;;;0.90;0.40;;;8.60;99.90;;;;;;5079680;28;20442;-45
2023/01/11 09:25:09;;;;;;;0.60;0.40;;;8.60;99.90;;;;;;5083100;28;20751;-45
2023/01/11 09:27:38;;;;;;;0.53;0.30;;;8.60;99.90;;;;;;5081335;28;20845;-46
2023/01/11 09:30:10;;;;;;;0.50;0.30;;;8.60;99.90;;;;;;5084907;28;20900;-45
2023/01/11 09:32:39;;;;;;;0.60;0.30;;;8.60;99.90;;;;;;5089159;28;20520;-45
2023/01/11 09:35:11;;;;;;;1.17;0.40;;;8.60;99.90;;;;;;5083422;28;20488;-46
2023/01/11 09:37:43;;;;;;;0.50;0.40;;;8.60;99.90;;;;;;5082874;28;20446;-45
2023/01/11 09:40:18;;;;;;;0.60;0.33;;;8.60;99.90;;;;;;5076965;28;20467;-44
2023/01/11 09:42:51;;;;;;;0.93;0.30;;;8.60;99.90;;;;;;5098441;28;20507;-44
2023/01/11 09:45:22;;;;;;;0.60;0.50;;;8.60;99.90;;;;;;5081735;28;20573;-46
2023/01/11 09:47:55;;;;;;;1.67;0.40;;;8.60;99.90;;;;;;5086844;28;20874;-45
2023/01/11 09:50:29;;;;;;;0.70;0.47;;;8.60;99.90;;;;;;5076055;28;21306;-44
2023/01/11 09:53:02;;;;;;;2.05;0.77;;;8.60;99.90;;;;;;5096388;28;20447;-45
2023/01/11 09:55:35;;;;;;;0.60;0.50;;;8.60;99.90;;;;;;5085312;28;20251;-46
2023/01/11 09:58:27;;;;;;;1.90;0.40;;;8.60;99.90;;;;;;5086193;28;21103;-44
2023/01/11 10:01:02;;;;;;;1.43;0.40;;;8.60;99.90;;;;;;5078586;28;20481;-44
2023/01/11 10:03:57;;;;;;;2.53;0.77;;;8.60;99.90;;;;;;5079606;28;20529;-45
2023/01/11 10:06:32;;;;;;;1.93;0.67;;;8.60;99.90;;;;;;5082778;28;20469;-46
2023/01/11 10:09:17;;;;;;;2.33;0.60;;;8.60;99.90;;;;;;5085027;28;21009;-46
2023/01/11 10:12:16;;;;;;;1.83;0.40;;;8.60;99.90;;;;;;5085119;28;21012;-46
2023/01/11 10:15:15;;;;;;;1.60;0.50;;;8.60;99.90;;;;;;5084969;28;20808;-46
2023/01/11 10:18:30;;;;;;;1.10;0.40;;;8.60;99.90;;;;;;5084687;28;20442;-46
2023/01/11 10:21:28;;;;;;;1.57;0.60;;;8.60;99.90;;;;;;5079929;28;20552;-45
2023/01/11 10:24:02;;;;;;;1.00;0.50;;;8.60;99.90;;;;;;5087378;28;20445;-44
2023/01/11 10:26:35;;;;;;;2.87;0.63;;;8.60;99.90;;;;;;5088449;28;20508;-45
2023/01/11 10:29:44;;;;;;;1.73;0.60;;;8.70;99.90;;;;;;5088242;28;20458;-46
2023/01/11 10:35:44;;;;;;;2.20;0.90;;;8.70;99.90;;;;;;5096527;28;20498;-45
2023/01/11 10:38:41;;;;;;;1.92;0.93;;;8.60;99.90;;;;;;5098422;28;20866;-45
2023/01/11 10:41:24;;;;;;;1.70;0.60;;;8.70;99.90;;;;;;5090573;28;20231;-46
2023/01/11 10:46:42;;;;;;;0.70;0.60;;;8.70;99.90;;;;;;5050218;28;20503;-46
2023/01/11 10:49:39;;;;;;;2.60;0.57;;;8.70;99.90;;;;;;5047296;28;20474;-47
2023/01/11 10:52:21;;;;;;;1.13;0.90;;;8.70;99.90;;;;;;5058832;28;20491;-46
2023/01/11 10:54:49;;;;;;;0.80;0.70;;;8.70;99.90;;;;;;5040457;28;20480;-46
2023/01/11 10:57:30;;;;;;;2.40;0.90;;;8.70;99.90;;;;;;5047761;28;20485;-44
2023/01/11 11:00:30;;;;;;;4.97;0.70;;;8.70;99.90;;;;;;5044985;28;20442;-47
2023/01/11 11:03:34;;;;;;;1.87;0.80;;;8.70;99.90;;;;;;5032116;28;20924;-46
2023/01/11 11:06:12;;;;;;;1.73;0.80;;;8.70;99.90;;;;;;5015951;28;20479;-46
2023/01/11 11:08:50;;;;;;;2.50;0.60;;;8.70;99.90;;;;;;5044497;28;20468;-46
2023/01/11 11:11:22;;;;;;;1.07;0.80;;;8.70;99.90;;;;;;5042012;28;21044;-46
2023/01/11 11:14:00;;;;;;;1.70;0.67;;;8.70;99.90;;;;;;5042135;28;20970;-46
2023/01/11 11:16:43;;;;;;;1.87;0.90;;;8.70;99.90;;;;;;5041469;28;20482;-46
2023/01/11 11:19:17;;;;;;;1.73;0.80;;;8.70;99.90;;;;;;5046152;28;20456;-44
2023/01/11 11:21:47;;;;;;;1.90;0.70;;;8.70;99.90;;;;;;5043319;28;20843;-47
2023/01/11 11:24:21;;;;;;;1.40;0.77;;;8.70;99.90;;;;;;5043215;28;20975;-43
2023/01/11 11:26:57;;;;;;;0.80;0.60;;;8.70;99.90;;;;;;5028311;28;20816;-47
2023/01/11 11:29:29;;;;;;;1.60;0.80;;;8.70;99.90;;;;;;5049676;28;20470;-46
2023/01/11 11:32:00;;;;;;;1.33;0.50;;;8.70;99.90;;;;;;5044808;28;20510;-46
2023/01/11 11:34:29;;;;;;;1.60;0.60;;;8.70;99.90;;;;;;5048537;28;21214;-45
2023/01/11 11:37:00;;;;;;;1.60;1.13;;;8.70;99.90;;;;;;5059371;28;20471;-47
2023/01/11 11:39:30;;;;;;;0.90;0.90;;;8.70;99.90;;;;;;5042836;28;20471;-46
2023/01/11 11:42:06;;;;;;;2.73;1.37;;;8.70;99.90;;;;;;5043751;28;20546;-46
2023/01/11 11:44:37;;;;;;;3.43;0.77;;;8.70;99.90;;;;;;5044716;28;20447;-45
2023/01/11 11:47:09;;;;;;;6.00;0.90;;;8.70;99.90;;;;;;5040240;28;20475;-46
2023/01/11 11:49:38;;;;;;;1.73;0.60;;;8.70;99.90;;;;;;5046580;28;20463;-46
2023/01/11 11:52:11;;;;;;;1.87;1.10;;;8.70;99.90;;;;;;5041193;28;21009;-47
2023/01/11 11:54:44;;;;;;;2.50;0.80;;;8.70;99.90;;;;;;5047271;28;20514;-44
2023/01/11 11:57:16;;;;;;;1.10;0.80;;;8.70;99.90;;;;;;5044312;28;20879;-46
2023/01/11 11:59:49;;;;;;;1.90;0.90;;;8.70;99.90;;;;;;5053311;28;20607;-46
2023/01/11 12:02:26;;;;;;;2.93;1.00;;;8.70;99.90;;;;;;5046107;28;20565;-46
2023/01/11 12:04:56;;;;;;;1.93;0.97;;;8.70;99.90;;;;;;5041392;28;20487;-46
2023/01/11 12:07:29;;;;;;;1.57;0.80;;;8.70;99.90;;;;;;5043776;28;20445;-47
2023/01/11 12:10:00;;;;;;;2.20;0.70;;;8.70;99.90;;;;;;5040092;28;20466;-46
2023/01/11 12:12:32;;;;;;;2.80;0.60;;;8.70;99.90;;;;;;5045347;28;21040;-45
2023/01/11 12:15:22;;;;;;;3.57;1.33;;;8.70;99.90;;;;;;5043629;28;20443;-46
2023/01/11 12:17:53;;;;;;;3.10;1.10;;;8.70;99.90;;;;;;5038778;28;20470;-45
2023/01/11 12:20:33;;;;;;;2.23;0.90;;;8.70;99.90;;;;;;5026652;28;20848;-45
2023/01/11 12:23:13;;;;;;;2.03;0.90;;;8.80;99.90;;;;;;5047232;28;20629;-46
2023/01/11 12:25:57;;;;;;;3.67;1.13;;;8.80;99.90;;;;;;5040067;28;20481;-46
2023/01/11 12:28:42;;;;;;;1.20;0.70;;;8.70;99.90;;;;;;5041278;28;20552;-46
2023/01/11 12:31:19;;;;;;;2.10;0.90;;;8.70;99.90;;;;;;5044381;28;20479;-46
2023/01/11 12:33:54;;;;;;;2.20;0.93;;;8.80;99.90;;;;;;5053185;28;20968;-46
2023/01/11 12:36:32;;;;;;;5.23;0.90;;;8.80;99.90;;;;;;5043883;28;20476;-46
2023/01/11 12:39:11;;;;;;;1.70;0.77;;;8.80;99.90;;;;;;5039641;28;20468;-46
2023/01/11 12:42:03;;;;;;;3.17;1.90;;;8.80;99.90;;;;;;5050188;28;20472;-46
2023/01/11 12:44:51;;;;;;;2.73;0.90;;;8.80;99.90;;;;;;5043996;28;20440;-46
2023/01/11 12:47:50;;;;;;;1.53;0.63;;;8.80;99.90;;;;;;5042584;28;20806;-46
2023/01/11 12:50:23;;;;;;;1.13;0.70;;;8.80;99.90;;;;;;5044637;28;20467;-45
2023/01/11 12:53:14;;;;;;;2.83;1.00;;;8.80;99.90;;;;;;5036831;28;20471;-46
2023/01/11 12:55:58;;;;;;;3.17;1.00;;;8.80;99.90;;;;;;5019210;28;20779;-46
2023/01/11 12:58:33;;;;;;;1.80;0.87;;;8.80;99.90;;;;;;5048194;28;20445;-46
2023/01/11 13:01:16;;;;;;;2.07;0.70;;;8.80;99.90;;;;;;5047321;28;20953;-47
2023/01/11 13:04:06;;;;;;;2.60;1.37;;;8.80;99.90;;;;;;5040288;28;20443;-46
2023/01/11 13:06:44;;;;;;;3.40;0.87;;;8.80;99.90;;;;;;5047158;28;20467;-45
2023/01/11 13:09:27;;;;;;;1.30;0.80;;;8.80;99.90;;;;;;5044512;28;20459;-46
2023/01/11 13:12:02;;;;;;;3.50;1.20;;;8.80;99.90;;;;;;5030616;28;20471;-46
2023/01/11 13:14:44;;;;;;;1.30;1.13;;;8.80;99.90;;;;;;5048007;28;20435;-46
2023/01/11 13:17:23;;;;;;;1.93;0.80;;;8.80;99.90;;;;;;5043262;28;20460;-45
2023/01/11 13:20:09;;;;;;;3.47;0.70;;;8.80;99.90;;;;;;5043883;28;20468;-45
2023/01/11 13:22:42;;;;;;;1.33;0.87;;;8.80;99.90;;;;;;5044801;28;20852;-46
2023/01/11 13:25:17;;;;;;;1.30;1.10;;;8.80;99.90;;;;;;5029136;28;20466;-46
2023/01/11 13:27:47;;;;;;;2.30;0.63;;;8.80;99.90;;;;;;5049817;28;20463;-46
2023/01/11 13:30:23;;;;;;;4.10;1.03;;;8.80;99.90;;;;;;5050654;28;21021;-46
2023/01/11 13:32:56;;;;;;;0.80;0.53;;;8.80;99.90;;;;;;5048147;28;20474;-46
2023/01/11 13:35:36;;;;;;;2.97;1.07;;;8.80;99.90;;;;;;5046769;28;20900;-46
2023/01/11 13:38:13;;;;;;;1.93;0.80;;;8.80;99.90;;;;;;5044800;28;20436;-46
2023/01/11 13:40:46;;;;;;;4.80;1.10;;;8.80;99.90;;;;;;5044492;28;21024;-46
2023/01/11 13:43:22;;;;;;;4.53;1.00;;;8.80;99.90;;;;;;5048588;28;20439;-46
2023/01/11 13:45:56;;;;;;;1.37;0.97;;;8.80;99.90;;;;;;5041531;28;20484;-46
2023/01/11 13:48:28;;;;;;;2.73;1.33;;;8.80;99.90;;;;;;5045002;28;20483;-46
2023/01/11 13:51:04;;;;;;;2.97;1.27;;;8.80;99.90;;;;;;5042732;28;20483;-45
2023/01/11 13:53:44;;;;;;;3.10;1.20;;;8.80;99.90;;;;;;5045502;28;20471;-46